Hico, West Virginia
Current Conditions -  °F | °C
As of 5:51 AM on Monday 22 Dec 2014 (Local Time) from KBKW Reporting Station
Overcast Overcast  
Wind Chill: 28°   Ceiling: 6500
Heat Index: 36°   Visibility: 10mi
Dew Point: 30°   Wind: 10mph
Humidity: 79%   Direction: 140°SE
Pressure: 30.06"   Gusts: NA
Location:  38.12°N, 81.01°W
Report Text: KBKW 221051Z AUTO 14009KT 10SM SCT047 OVC065 02/M01 A3006 RMK AO2 SLP200 T00221011 $
Loading
Personal Weather Stations






























Interactive Weather Map New forecast layout! Learn more

10-Day Weather Forecast

Advertisements
Track Severe Weather on mobile